PINE FLAT DAM (PNF)

Elevation: 970' · KINGS R basin · Operator: US Army Corps of Engineers

Provisional data, subject to change.
Query executed Sunday at 18:17:31   clock

Select a sensor type for a plot of data.
Note: Reservoir Flows are daily averages.

Earlier

Date RES ELE    STORAGE    RES CHG    TOC STO    ABV TOC    OUTFLOW    INFLOW    FNF    PPT INC    PPTINC4    TEMP MN    TEMP MX    WINDLEN    EVP PAN   
 FEET   AF   AF   AF   AF   CFS   CFS   CFS   INCHES   INCHES   DEG F   DEG F   MILES   INCHES  
04/25/2015 761.12 204024 940 985227 -781203 178 661 921 0.51 0.10 -- -- 42 0.12
04/26/2015 761.49 204967 943 988182 -783215 175 661 850 0.01 0.51 -- -- 36 0.14
04/27/2015 761.93 206090 1123 991136 -785046 171 754 1085 0.02 0.00 -- -- 42 0.24
04/28/2015 762.51 207576 1486 994091 -786515 165 934 1235 0.00 0.00 -- -- 49 0.27
04/29/2015 763.19 209326 -- 997045 -787719 170 1071 1334 0.00 0.00 -- -- 56 0.26
04/30/2015 763.90 211161 1835 1000000 -788839 175 1119 1408 0.00 0.00 -- -- 53 0.25
05/01/2015 764.66 213134 1973 1000000 -786866 175 1190 1425 0.00 0.00 -- -- 50 0.27
05/02/2015 765.43 215144 -- 1000000 -784856 175 1208 1480 0.00 0.00 -- -- 47 0.26
05/03/2015 766.19 217137 -- 1000000 -782863 175 1200 1431 0.00 0.00 -- -- 53 0.26
05/04/2015 766.92 219061 1924 1000000 -780939 180 1167 1384 0.00 0.00 -- -- 44 0.23
05/05/2015 767.56 220754 -- 1000000 -779246 182 1054 1224 0.00 0.01 -- -- 44 0.24
05/06/2015 768.13 222269 1515 1000000 -777731 174 955 1115 0.00 0.00 -- -- 54 0.23
05/07/2015 768.65 223655 1386 1000000 -776345 168 874 1026 0.01 0.00 -- -- 37 0.10
05/08/2015 769.21 225153 1498 1000000 -774847 165 927 1038 0.00 0.10 -- -- 37 0.09
05/09/2015 769.68 226415 1262 1000000 -773585 165 819 950 0.02 0.01 -- -- 49 0.23
05/10/2015 770.13 227626 1211 1000000 -772374 165 795 965 0.00 0.00 -- -- 47 0.25
05/11/2015 770.54 228733 1107 1000000 -771267 169 747 885 0.02 0.00 -- -- 58 0.26
05/12/2015 771.03 230059 1326 1000000 -769941 170 857 900 0.00 0.00 -- -- 60 0.24
05/13/2015 771.47 231253 1194 1000000 -768747 170 788 822 0.00 0.00 -- -- 50 0.21
05/14/2015 771.89 232396 1143 1000000 -767604 170 755 834 0.00 0.00 -- -- 38 0.11
05/15/2015 772.28 233460 1064 1000000 -766540 170 714 774 0.00 0.16 -- -- 37 0.10
05/16/2015 772.65 234472 1012 1000000 -765528 169 698 778 0.00 0.04 -- -- 52 0.24
05/17/2015 773.02 235487 1015 1000000 -764513 165 692 842 0.00 0.00 -- -- 54 0.19
05/18/2015 773.52 236861 1374 1000000 -- 165 875 1008 0.00 0.00 -- -- 62 0.22
05/19/2015 774.10 238460 1599 1000000 -- 167 992 1183 0.00 0.01 -- -- 47 0.24
05/20/2015 774.67 240038 1578 1000000 -759962 170 985 1169 0.00 0.00 -- -- 50 0.25
05/21/2015 775.27 241704 1666 1000000 -758296 170 1018 1281 0.00 0.00 -- -- 41 0.10
05/22/2015 776.06 243908 2204 1000000 -- 168 1287 1534 0.12 0.01 -- -- 29 0.09
05/23/2015 776.82 246037 2129 1000000 -753963 165 1254 1566 0.00 0.05 -- -- 44 0.19
05/24/2015 -- -- -- -- -- -- -- -- -- 0.00 -- -- -- --

Later | Latest

Warning! This data is preliminary and subject to revision.

Show PNF Map | Plot PNF Data | 1 Month PNF Data | Real-Time PNF Data | PNF Info